sensor_id;sensor_type;location;lat;lon;timestamp;P1;durP1;ratioP1;P2;durP2;ratioP2
5929;SDS011;2990;48.746;9.236;2023-07-24T00:00:39;580.72;;;544.60;;
5929;SDS011;2990;48.746;9.236;2023-07-24T00:03:05;564.95;;;530.22;;
5929;SDS011;2990;48.746;9.236;2023-07-24T00:05:31;542.17;;;508.85;;
5929;SDS011;2990;48.746;9.236;2023-07-24T00:07:57;583.05;;;546.60;;
5929;SDS011;2990;48.746;9.236;2023-07-24T00:10:22;551.55;;;517.22;;
5929;SDS011;2990;48.746;9.236;2023-07-24T00:12:48;598.33;;;560.47;;
5929;SDS011;2990;48.746;9.236;2023-07-24T00:15:13;595.40;;;557.88;;
5929;SDS011;2990;48.746;9.236;2023-07-24T00:17:39;575.70;;;539.20;;
5929;SDS011;2990;48.746;9.236;2023-07-24T00:20:05;552.45;;;518.42;;
5929;SDS011;2990;48.746;9.236;2023-07-24T00:22:31;546.88;;;513.75;;
5929;SDS011;2990;48.746;9.236;2023-07-24T00:24:57;492.58;;;463.33;;
5929;SDS011;2990;48.746;9.236;2023-07-24T00:27:22;535.25;;;502.70;;
5929;SDS011;2990;48.746;9.236;2023-07-24T00:29:48;514.10;;;483.13;;
5929;SDS011;2990;48.746;9.236;2023-07-24T00:32:14;507.35;;;477.17;;
5929;SDS011;2990;48.746;9.236;2023-07-24T00:34:39;489.77;;;461.35;;
5929;SDS011;2990;48.746;9.236;2023-07-24T00:37:05;460.95;;;434.13;;
5929;SDS011;2990;48.746;9.236;2023-07-24T00:39:30;418.20;;;394.35;;
5929;SDS011;2990;48.746;9.236;2023-07-24T00:41:56;433.35;;;408.73;;
5929;SDS011;2990;48.746;9.236;2023-07-24T00:44:21;426.95;;;402.70;;
5929;SDS011;2990;48.746;9.236;2023-07-24T00:46:47;434.42;;;408.90;;
5929;SDS011;2990;48.746;9.236;2023-07-24T00:49:13;459.98;;;433.08;;
5929;SDS011;2990;48.746;9.236;2023-07-24T00:51:39;438.67;;;413.13;;
5929;SDS011;2990;48.746;9.236;2023-07-24T00:54:05;459.02;;;432.20;;
5929;SDS011;2990;48.746;9.236;2023-07-24T00:56:32;473.25;;;445.58;;
5929;SDS011;2990;48.746;9.236;2023-07-24T00:58:59;436.95;;;411.77;;
5929;SDS011;2990;48.746;9.236;2023-07-24T01:01:25;466.40;;;438.80;;
5929;SDS011;2990;48.746;9.236;2023-07-24T01:03:52;462.50;;;435.42;;
5929;SDS011;2990;48.746;9.236;2023-07-24T01:06:17;497.65;;;468.08;;
5929;SDS011;2990;48.746;9.236;2023-07-24T01:08:43;475.63;;;447.63;;
5929;SDS011;2990;48.746;9.236;2023-07-24T01:11:16;457.95;;;431.23;;
5929;SDS011;2990;48.746;9.236;2023-07-24T01:13:48;474.38;;;446.35;;
5929;SDS011;2990;48.746;9.236;2023-07-24T01:16:30;473.38;;;445.90;;
5929;SDS011;2990;48.746;9.236;2023-07-24T01:19:16;483.25;;;454.80;;
5929;SDS011;2990;48.746;9.236;2023-07-24T01:27:23;440.23;;;414.75;;
5929;SDS011;2990;48.746;9.236;2023-07-24T01:29:48;468.38;;;440.83;;
5929;SDS011;2990;48.746;9.236;2023-07-24T01:32:14;451.48;;;425.08;;
5929;SDS011;2990;48.746;9.236;2023-07-24T01:34:40;434.58;;;409.15;;
5929;SDS011;2990;48.746;9.236;2023-07-24T01:37:05;444.90;;;419.27;;
5929;SDS011;2990;48.746;9.236;2023-07-24T01:39:31;426.33;;;402.25;;
5929;SDS011;2990;48.746;9.236;2023-07-24T01:41:58;413.83;;;390.40;;
5929;SDS011;2990;48.746;9.236;2023-07-24T01:44:23;405.83;;;382.77;;
5929;SDS011;2990;48.746;9.236;2023-07-24T01:46:49;395.48;;;373.35;;
5929;SDS011;2990;48.746;9.236;2023-07-24T01:49:15;381.17;;;359.77;;
5929;SDS011;2990;48.746;9.236;2023-07-24T01:51:40;394.63;;;372.75;;
5929;SDS011;2990;48.746;9.236;2023-07-24T01:54:06;371.52;;;350.98;;
5929;SDS011;2990;48.746;9.236;2023-07-24T01:56:32;381.42;;;360.55;;
5929;SDS011;2990;48.746;9.236;2023-07-24T01:58:58;373.15;;;352.42;;
5929;SDS011;2990;48.746;9.236;2023-07-24T02:01:24;358.00;;;338.17;;
5929;SDS011;2990;48.746;9.236;2023-07-24T02:03:53;352.75;;;334.00;;
5929;SDS011;2990;48.746;9.236;2023-07-24T02:06:18;324.08;;;306.60;;
5929;SDS011;2990;48.746;9.236;2023-07-24T02:08:44;336.10;;;318.02;;
5929;SDS011;2990;48.746;9.236;2023-07-24T02:11:14;331.40;;;313.75;;
5929;SDS011;2990;48.746;9.236;2023-07-24T02:13:40;354.13;;;335.23;;
5929;SDS011;2990;48.746;9.236;2023-07-24T02:16:08;350.70;;;331.85;;
5929;SDS011;2990;48.746;9.236;2023-07-24T02:18:34;342.33;;;323.95;;
5929;SDS011;2990;48.746;9.236;2023-07-24T02:20:59;309.38;;;293.08;;
5929;SDS011;2990;48.746;9.236;2023-07-24T02:23:25;333.25;;;315.40;;
5929;SDS011;2990;48.746;9.236;2023-07-24T02:25:51;305.90;;;289.88;;
5929;SDS011;2990;48.746;9.236;2023-07-24T02:28:17;314.23;;;297.90;;
5929;SDS011;2990;48.746;9.236;2023-07-24T02:30:43;331.23;;;313.58;;
5929;SDS011;2990;48.746;9.236;2023-07-24T02:33:08;302.50;;;286.63;;
5929;SDS011;2990;48.746;9.236;2023-07-24T02:35:41;333.27;;;315.45;;
5929;SDS011;2990;48.746;9.236;2023-07-24T02:38:07;320.10;;;303.40;;
5929;SDS011;2990;48.746;9.236;2023-07-24T02:40:33;327.20;;;309.80;;
5929;SDS011;2990;48.746;9.236;2023-07-24T02:42:59;338.67;;;320.30;;
5929;SDS011;2990;48.746;9.236;2023-07-24T02:45:25;346.00;;;327.83;;
5929;SDS011;2990;48.746;9.236;2023-07-24T02:47:50;326.10;;;308.98;;
5929;SDS011;2990;48.746;9.236;2023-07-24T02:50:16;325.52;;;308.40;;
5929;SDS011;2990;48.746;9.236;2023-07-24T02:52:41;300.05;;;284.52;;
5929;SDS011;2990;48.746;9.236;2023-07-24T02:55:07;310.30;;;294.02;;
5929;SDS011;2990;48.746;9.236;2023-07-24T02:57:33;323.73;;;306.90;;
5929;SDS011;2990;48.746;9.236;2023-07-24T02:59:58;317.50;;;300.85;;
5929;SDS011;2990;48.746;9.236;2023-07-24T03:02:24;319.65;;;302.60;;
5929;SDS011;2990;48.746;9.236;2023-07-24T03:04:49;319.45;;;302.98;;
5929;SDS011;2990;48.746;9.236;2023-07-24T03:07:15;327.98;;;310.58;;
5929;SDS011;2990;48.746;9.236;2023-07-24T03:09:41;320.85;;;304.10;;
5929;SDS011;2990;48.746;9.236;2023-07-24T03:12:06;318.35;;;301.30;;
5929;SDS011;2990;48.746;9.236;2023-07-24T03:14:32;326.80;;;309.38;;
5929;SDS011;2990;48.746;9.236;2023-07-24T03:16:58;322.10;;;305.08;;
5929;SDS011;2990;48.746;9.236;2023-07-24T03:19:23;328.23;;;310.92;;
5929;SDS011;2990;48.746;9.236;2023-07-24T03:21:49;330.23;;;312.73;;
5929;SDS011;2990;48.746;9.236;2023-07-24T03:24:14;343.65;;;325.40;;
5929;SDS011;2990;48.746;9.236;2023-07-24T03:26:40;340.48;;;322.40;;
5929;SDS011;2990;48.746;9.236;2023-07-24T03:29:05;344.85;;;326.17;;
5929;SDS011;2990;48.746;9.236;2023-07-24T03:31:31;336.42;;;318.38;;
5929;SDS011;2990;48.746;9.236;2023-07-24T03:33:56;324.70;;;307.63;;
5929;SDS011;2990;48.746;9.236;2023-07-24T03:36:22;314.05;;;297.35;;
5929;SDS011;2990;48.746;9.236;2023-07-24T03:38:47;325.80;;;308.15;;
5929;SDS011;2990;48.746;9.236;2023-07-24T03:41:13;327.77;;;310.52;;
5929;SDS011;2990;48.746;9.236;2023-07-24T03:43:38;303.48;;;287.35;;
5929;SDS011;2990;48.746;9.236;2023-07-24T03:46:04;331.45;;;313.75;;
5929;SDS011;2990;48.746;9.236;2023-07-24T03:48:30;318.08;;;301.30;;
5929;SDS011;2990;48.746;9.236;2023-07-24T03:50:58;322.50;;;305.25;;
5929;SDS011;2990;48.746;9.236;2023-07-24T03:53:24;317.90;;;300.67;;
5929;SDS011;2990;48.746;9.236;2023-07-24T03:55:50;340.08;;;321.67;;
5929;SDS011;2990;48.746;9.236;2023-07-24T03:58:16;339.52;;;321.40;;
5929;SDS011;2990;48.746;9.236;2023-07-24T04:00:41;356.33;;;337.13;;
5929;SDS011;2990;48.746;9.236;2023-07-24T04:03:07;356.00;;;336.95;;
5929;SDS011;2990;48.746;9.236;2023-07-24T04:05:33;364.10;;;344.10;;
5929;SDS011;2990;48.746;9.236;2023-07-24T04:07:59;365.73;;;345.58;;
5929;SDS011;2990;48.746;9.236;2023-07-24T04:10:25;379.13;;;358.25;;
5929;SDS011;2990;48.746;9.236;2023-07-24T04:12:51;388.30;;;366.80;;
5929;SDS011;2990;48.746;9.236;2023-07-24T04:15:16;372.23;;;351.50;;
5929;SDS011;2990;48.746;9.236;2023-07-24T04:17:42;405.27;;;382.80;;
5929;SDS011;2990;48.746;9.236;2023-07-24T04:20:08;394.88;;;372.85;;
5929;SDS011;2990;48.746;9.236;2023-07-24T04:22:34;419.63;;;395.88;;
5929;SDS011;2990;48.746;9.236;2023-07-24T04:24:59;400.73;;;378.45;;
5929;SDS011;2990;48.746;9.236;2023-07-24T04:27:25;391.77;;;370.02;;
5929;SDS011;2990;48.746;9.236;2023-07-24T04:29:51;424.30;;;400.15;;
5929;SDS011;2990;48.746;9.236;2023-07-24T04:32:16;436.95;;;412.02;;
5929;SDS011;2990;48.746;9.236;2023-07-24T04:34:42;429.58;;;405.27;;
5929;SDS011;2990;48.746;9.236;2023-07-24T04:37:07;431.67;;;407.13;;
5929;SDS011;2990;48.746;9.236;2023-07-24T04:39:33;420.65;;;396.65;;
5929;SDS011;2990;48.746;9.236;2023-07-24T04:41:59;414.38;;;390.85;;
5929;SDS011;2990;48.746;9.236;2023-07-24T04:44:24;458.35;;;431.83;;
5929;SDS011;2990;48.746;9.236;2023-07-24T04:46:50;449.70;;;423.85;;
5929;SDS011;2990;48.746;9.236;2023-07-24T04:49:16;457.50;;;430.90;;
5929;SDS011;2990;48.746;9.236;2023-07-24T04:51:41;481.98;;;453.50;;
5929;SDS011;2990;48.746;9.236;2023-07-24T04:54:07;494.83;;;465.77;;
5929;SDS011;2990;48.746;9.236;2023-07-24T04:56:32;482.88;;;454.33;;
5929;SDS011;2990;48.746;9.236;2023-07-24T04:58:58;478.38;;;450.10;;
5929;SDS011;2990;48.746;9.236;2023-07-24T05:01:24;485.50;;;456.77;;
5929;SDS011;2990;48.746;9.236;2023-07-24T05:03:59;451.15;;;424.55;;
5929;SDS011;2990;48.746;9.236;2023-07-24T05:06:25;470.45;;;442.88;;
5929;SDS011;2990;48.746;9.236;2023-07-24T05:08:54;498.73;;;469.13;;
5929;SDS011;2990;48.746;9.236;2023-07-24T05:11:20;505.23;;;475.08;;
5929;SDS011;2990;48.746;9.236;2023-07-24T05:13:46;534.88;;;502.15;;
5929;SDS011;2990;48.746;9.236;2023-07-24T05:16:11;523.45;;;491.73;;
5929;SDS011;2990;48.746;9.236;2023-07-24T05:18:37;584.25;;;547.75;;
5929;SDS011;2990;48.746;9.236;2023-07-24T05:21:02;574.97;;;539.17;;
5929;SDS011;2990;48.746;9.236;2023-07-24T05:23:28;571.17;;;535.38;;
5929;SDS011;2990;48.746;9.236;2023-07-24T05:25:57;563.40;;;528.20;;
5929;SDS011;2990;48.746;9.236;2023-07-24T05:28:24;572.45;;;536.58;;
5929;SDS011;2990;48.746;9.236;2023-07-24T05:30:53;562.88;;;527.45;;
5929;SDS011;2990;48.746;9.236;2023-07-24T05:33:19;551.20;;;517.13;;
5929;SDS011;2990;48.746;9.236;2023-07-24T05:35:45;525.30;;;493.30;;
5929;SDS011;2990;48.746;9.236;2023-07-24T05:38:10;523.38;;;492.17;;
5929;SDS011;2990;48.746;9.236;2023-07-24T05:40:36;487.23;;;458.33;;
5929;SDS011;2990;48.746;9.236;2023-07-24T05:43:02;462.85;;;436.23;;
5929;SDS011;2990;48.746;9.236;2023-07-24T05:45:28;516.38;;;485.63;;
5929;SDS011;2990;48.746;9.236;2023-07-24T05:47:57;456.48;;;430.27;;
5929;SDS011;2990;48.746;9.236;2023-07-24T05:50:25;444.98;;;419.70;;
5929;SDS011;2990;48.746;9.236;2023-07-24T05:52:53;454.33;;;428.00;;
5929;SDS011;2990;48.746;9.236;2023-07-24T05:55:18;467.30;;;440.52;;
5929;SDS011;2990;48.746;9.236;2023-07-24T05:57:44;448.48;;;422.58;;
5929;SDS011;2990;48.746;9.236;2023-07-24T06:00:10;481.40;;;453.45;;
5929;SDS011;2990;48.746;9.236;2023-07-24T06:02:35;468.42;;;441.17;;
5929;SDS011;2990;48.746;9.236;2023-07-24T06:05:01;502.80;;;472.60;;
5929;SDS011;2990;48.746;9.236;2023-07-24T06:07:27;510.17;;;479.75;;
5929;SDS011;2990;48.746;9.236;2023-07-24T06:09:52;502.05;;;472.40;;
5929;SDS011;2990;48.746;9.236;2023-07-24T06:12:18;490.88;;;462.05;;
5929;SDS011;2990;48.746;9.236;2023-07-24T06:14:43;524.53;;;493.10;;
5929;SDS011;2990;48.746;9.236;2023-07-24T06:17:09;534.17;;;501.95;;
5929;SDS011;2990;48.746;9.236;2023-07-24T06:19:34;547.85;;;514.78;;
5929;SDS011;2990;48.746;9.236;2023-07-24T06:22:00;511.05;;;480.35;;
5929;SDS011;2990;48.746;9.236;2023-07-24T06:24:25;551.22;;;517.22;;
5929;SDS011;2990;48.746;9.236;2023-07-24T06:26:51;546.17;;;513.15;;
5929;SDS011;2990;48.746;9.236;2023-07-24T06:29:16;556.85;;;522.45;;
5929;SDS011;2990;48.746;9.236;2023-07-24T06:31:42;572.35;;;536.85;;
5929;SDS011;2990;48.746;9.236;2023-07-24T06:34:08;593.67;;;556.20;;
5929;SDS011;2990;48.746;9.236;2023-07-24T06:36:33;586.78;;;549.88;;
5929;SDS011;2990;48.746;9.236;2023-07-24T06:38:59;617.03;;;577.70;;
5929;SDS011;2990;48.746;9.236;2023-07-24T06:41:24;583.22;;;546.35;;
5929;SDS011;2990;48.746;9.236;2023-07-24T06:43:50;636.13;;;595.03;;
5929;SDS011;2990;48.746;9.236;2023-07-24T06:46:16;663.50;;;620.28;;
5929;SDS011;2990;48.746;9.236;2023-07-24T06:48:42;696.63;;;651.20;;
5929;SDS011;2990;48.746;9.236;2023-07-24T06:51:08;696.88;;;650.83;;
5929;SDS011;2990;48.746;9.236;2023-07-24T06:53:33;682.08;;;637.15;;
5929;SDS011;2990;48.746;9.236;2023-07-24T06:55:59;693.58;;;647.78;;
5929;SDS011;2990;48.746;9.236;2023-07-24T06:58:25;660.85;;;617.67;;
5929;SDS011;2990;48.746;9.236;2023-07-24T07:00:51;683.10;;;637.83;;
5929;SDS011;2990;48.746;9.236;2023-07-24T07:03:16;690.15;;;644.83;;
5929;SDS011;2990;48.746;9.236;2023-07-24T07:05:43;684.20;;;639.08;;
5929;SDS011;2990;48.746;9.236;2023-07-24T07:08:08;690.75;;;645.00;;
5929;SDS011;2990;48.746;9.236;2023-07-24T07:10:34;691.17;;;644.83;;
5929;SDS011;2990;48.746;9.236;2023-07-24T07:12:59;718.55;;;670.70;;
5929;SDS011;2990;48.746;9.236;2023-07-24T07:15:25;701.47;;;655.05;;
5929;SDS011;2990;48.746;9.236;2023-07-24T07:17:51;731.33;;;682.55;;
5929;SDS011;2990;48.746;9.236;2023-07-24T07:20:16;754.05;;;703.83;;
5929;SDS011;2990;48.746;9.236;2023-07-24T07:22:42;737.00;;;687.97;;
5929;SDS011;2990;48.746;9.236;2023-07-24T07:25:07;714.95;;;667.25;;
5929;SDS011;2990;48.746;9.236;2023-07-24T07:27:33;715.45;;;667.50;;
5929;SDS011;2990;48.746;9.236;2023-07-24T07:29:59;726.60;;;678.13;;
5929;SDS011;2990;48.746;9.236;2023-07-24T07:32:24;767.75;;;716.65;;
5929;SDS011;2990;48.746;9.236;2023-07-24T07:34:50;749.08;;;698.85;;
5929;SDS011;2990;48.746;9.236;2023-07-24T07:37:15;775.13;;;722.80;;
5929;SDS011;2990;48.746;9.236;2023-07-24T07:39:41;734.92;;;686.30;;
5929;SDS011;2990;48.746;9.236;2023-07-24T07:42:06;746.78;;;697.38;;
5929;SDS011;2990;48.746;9.236;2023-07-24T07:44:32;743.42;;;693.72;;
5929;SDS011;2990;48.746;9.236;2023-07-24T07:46:57;781.28;;;729.08;;
5929;SDS011;2990;48.746;9.236;2023-07-24T07:49:23;735.72;;;687.00;;
5929;SDS011;2990;48.746;9.236;2023-07-24T07:51:49;748.28;;;697.97;;
5929;SDS011;2990;48.746;9.236;2023-07-24T07:54:14;776.92;;;724.88;;
5929;SDS011;2990;48.746;9.236;2023-07-24T07:56:40;780.05;;;727.83;;
5929;SDS011;2990;48.746;9.236;2023-07-24T07:59:06;769.92;;;718.35;;
5929;SDS011;2990;48.746;9.236;2023-07-24T08:01:32;785.83;;;733.45;;
5929;SDS011;2990;48.746;9.236;2023-07-24T08:03:57;776.75;;;724.85;;
5929;SDS011;2990;48.746;9.236;2023-07-24T08:06:23;768.28;;;716.90;;
5929;SDS011;2990;48.746;9.236;2023-07-24T08:08:49;748.10;;;698.17;;
5929;SDS011;2990;48.746;9.236;2023-07-24T08:11:15;799.22;;;745.63;;
5929;SDS011;2990;48.746;9.236;2023-07-24T08:13:40;760.47;;;709.58;;
5929;SDS011;2990;48.746;9.236;2023-07-24T08:16:12;800.50;;;746.10;;
5929;SDS011;2990;48.746;9.236;2023-07-24T08:18:43;814.47;;;759.45;;
5929;SDS011;2990;48.746;9.236;2023-07-24T08:21:09;799.70;;;745.88;;
5929;SDS011;2990;48.746;9.236;2023-07-24T08:23:35;841.20;;;783.97;;
5929;SDS011;2990;48.746;9.236;2023-07-24T08:26:00;845.03;;;787.22;;
5929;SDS011;2990;48.746;9.236;2023-07-24T08:28:27;853.08;;;795.03;;
5929;SDS011;2990;48.746;9.236;2023-07-24T08:30:56;846.85;;;788.63;;
5929;SDS011;2990;48.746;9.236;2023-07-24T08:33:23;777.38;;;724.60;;
5929;SDS011;2990;48.746;9.236;2023-07-24T08:36:05;824.78;;;769.17;;
5929;SDS011;2990;48.746;9.236;2023-07-24T08:38:32;833.13;;;777.40;;
5929;SDS011;2990;48.746;9.236;2023-07-24T08:41:06;803.60;;;749.13;;
5929;SDS011;2990;48.746;9.236;2023-07-24T08:43:36;823.45;;;767.45;;
5929;SDS011;2990;48.746;9.236;2023-07-24T08:46:03;852.80;;;794.05;;
5929;SDS011;2990;48.746;9.236;2023-07-24T08:48:30;835.88;;;777.10;;
5929;SDS011;2990;48.746;9.236;2023-07-24T08:51:22;892.38;;;829.08;;
5929;SDS011;2990;48.746;9.236;2023-07-24T08:53:47;912.63;;;847.97;;
5929;SDS011;2990;48.746;9.236;2023-07-24T08:56:13;933.97;;;866.97;;
5929;SDS011;2990;48.746;9.236;2023-07-24T08:58:39;924.65;;;858.58;;
5929;SDS011;2990;48.746;9.236;2023-07-24T09:01:05;936.05;;;869.58;;
5929;SDS011;2990;48.746;9.236;2023-07-24T09:03:31;892.85;;;831.17;;
5929;SDS011;2990;48.746;9.236;2023-07-24T09:05:58;897.88;;;835.70;;
5929;SDS011;2990;48.746;9.236;2023-07-24T09:11:02;859.72;;;800.75;;
5929;SDS011;2990;48.746;9.236;2023-07-24T09:13:28;836.08;;;779.38;;
5929;SDS011;2990;48.746;9.236;2023-07-24T09:15:55;817.67;;;762.67;;
5929;SDS011;2990;48.746;9.236;2023-07-24T09:18:20;819.95;;;764.13;;
5929;SDS011;2990;48.746;9.236;2023-07-24T09:20:46;828.85;;;772.78;;
5929;SDS011;2990;48.746;9.236;2023-07-24T09:23:12;803.40;;;749.20;;
5929;SDS011;2990;48.746;9.236;2023-07-24T09:25:39;796.95;;;743.90;;
5929;SDS011;2990;48.746;9.236;2023-07-24T09:28:13;820.25;;;764.97;;
5929;SDS011;2990;48.746;9.236;2023-07-24T09:30:40;860.30;;;800.85;;
5929;SDS011;2990;48.746;9.236;2023-07-24T09:33:07;872.42;;;812.78;;
5929;SDS011;2990;48.746;9.236;2023-07-24T09:35:33;836.08;;;779.55;;
5929;SDS011;2990;48.746;9.236;2023-07-24T09:38:03;903.20;;;839.03;;
5929;SDS011;2990;48.746;9.236;2023-07-24T09:40:36;932.38;;;866.45;;
5929;SDS011;2990;48.746;9.236;2023-07-24T09:43:13;958.75;;;890.30;;
5929;SDS011;2990;48.746;9.236;2023-07-24T09:46:01;925.92;;;860.50;;
5929;SDS011;2990;48.746;9.236;2023-07-24T09:48:33;893.83;;;830.72;;
5929;SDS011;2990;48.746;9.236;2023-07-24T09:51:00;930.15;;;863.95;;
5929;SDS011;2990;48.746;9.236;2023-07-24T09:53:39;938.65;;;871.42;;
5929;SDS011;2990;48.746;9.236;2023-07-24T09:56:09;940.55;;;873.97;;
5929;SDS011;2990;48.746;9.236;2023-07-24T09:58:37;945.92;;;877.95;;
5929;SDS011;2990;48.746;9.236;2023-07-24T10:01:04;962.65;;;893.47;;
5929;SDS011;2990;48.746;9.236;2023-07-24T10:03:35;944.88;;;876.97;;
5929;SDS011;2990;48.746;9.236;2023-07-24T10:06:05;949.72;;;881.30;;
5929;SDS011;2990;48.746;9.236;2023-07-24T10:08:35;928.45;;;862.60;;
5929;SDS011;2990;48.746;9.236;2023-07-24T10:11:01;929.53;;;863.53;;
5929;SDS011;2990;48.746;9.236;2023-07-24T10:13:27;937.92;;;870.97;;
5929;SDS011;2990;48.746;9.236;2023-07-24T10:15:53;927.50;;;862.15;;
5929;SDS011;2990;48.746;9.236;2023-07-24T10:18:26;915.63;;;850.35;;
5929;SDS011;2990;48.746;9.236;2023-07-24T10:21:06;898.03;;;834.53;;
5929;SDS011;2990;48.746;9.236;2023-07-24T10:23:37;870.20;;;809.75;;
5929;SDS011;2990;48.746;9.236;2023-07-24T10:26:06;896.00;;;832.80;;
5929;SDS011;2990;48.746;9.236;2023-07-24T10:28:37;903.80;;;840.50;;
5929;SDS011;2990;48.746;9.236;2023-07-24T10:31:08;874.72;;;814.00;;
5929;SDS011;2990;48.746;9.236;2023-07-24T10:33:51;849.80;;;791.47;;
5929;SDS011;2990;48.746;9.236;2023-07-24T10:36:18;860.38;;;800.42;;
5929;SDS011;2990;48.746;9.236;2023-07-24T10:38:46;839.60;;;782.67;;
5929;SDS011;2990;48.746;9.236;2023-07-24T10:41:16;805.40;;;750.22;;
5929;SDS011;2990;48.746;9.236;2023-07-24T10:43:52;836.30;;;777.78;;
5929;SDS011;2990;48.746;9.236;2023-07-24T10:46:23;852.33;;;793.17;;
5929;SDS011;2990;48.746;9.236;2023-07-24T10:49:00;867.60;;;806.72;;
5929;SDS011;2990;48.746;9.236;2023-07-24T10:51:28;904.25;;;839.40;;
5929;SDS011;2990;48.746;9.236;2023-07-24T10:53:54;982.30;;;907.83;;
5929;SDS011;2990;48.746;9.236;2023-07-24T10:56:20;1071.55;;;983.97;;
5929;SDS011;2990;48.746;9.236;2023-07-24T10:58:45;1106.72;;;999.70;;
5929;SDS011;2990;48.746;9.236;2023-07-24T11:01:11;1157.97;;;999.90;;
5929;SDS011;2990;48.746;9.236;2023-07-24T11:03:37;1162.45;;;999.90;;
5929;SDS011;2990;48.746;9.236;2023-07-24T11:06:05;1168.85;;;999.90;;
5929;SDS011;2990;48.746;9.236;2023-07-24T11:08:36;1189.10;;;999.90;;
5929;SDS011;2990;48.746;9.236;2023-07-24T11:11:05;1178.47;;;999.90;;
5929;SDS011;2990;48.746;9.236;2023-07-24T11:13:34;1203.88;;;999.90;;
5929;SDS011;2990;48.746;9.236;2023-07-24T11:16:08;1165.32;;;999.90;;
5929;SDS011;2990;48.746;9.236;2023-07-24T11:18:43;1176.65;;;999.90;;
5929;SDS011;2990;48.746;9.236;2023-07-24T11:21:14;1186.93;;;999.90;;
5929;SDS011;2990;48.746;9.236;2023-07-24T11:23:59;1226.68;;;999.90;;
5929;SDS011;2990;48.746;9.236;2023-07-24T11:26:25;1181.03;;;999.90;;
5929;SDS011;2990;48.746;9.236;2023-07-24T11:28:52;1192.65;;;999.90;;
5929;SDS011;2990;48.746;9.236;2023-07-24T11:31:18;1221.60;;;999.90;;
5929;SDS011;2990;48.746;9.236;2023-07-24T11:33:50;1196.10;;;999.90;;
5929;SDS011;2990;48.746;9.236;2023-07-24T11:36:17;1238.50;;;999.90;;
5929;SDS011;2990;48.746;9.236;2023-07-24T11:38:47;1242.72;;;999.90;;
5929;SDS011;2990;48.746;9.236;2023-07-24T11:41:13;1248.03;;;999.90;;
5929;SDS011;2990;48.746;9.236;2023-07-24T11:43:46;1243.63;;;999.90;;
5929;SDS011;2990;48.746;9.236;2023-07-24T11:46:21;1263.90;;;999.90;;
5929;SDS011;2990;48.746;9.236;2023-07-24T11:48:51;1239.75;;;999.90;;
5929;SDS011;2990;48.746;9.236;2023-07-24T11:51:19;1273.07;;;999.90;;
5929;SDS011;2990;48.746;9.236;2023-07-24T11:53:45;1260.43;;;999.90;;
5929;SDS011;2990;48.746;9.236;2023-07-24T11:56:15;1233.82;;;999.90;;
5929;SDS011;2990;48.746;9.236;2023-07-24T11:58:42;1262.50;;;999.90;;
5929;SDS011;2990;48.746;9.236;2023-07-24T12:01:08;1253.07;;;999.90;;
5929;SDS011;2990;48.746;9.236;2023-07-24T12:03:33;1258.28;;;999.90;;
5929;SDS011;2990;48.746;9.236;2023-07-24T12:05:59;1212.63;;;999.90;;
5929;SDS011;2990;48.746;9.236;2023-07-24T12:08:32;1259.03;;;999.90;;
5929;SDS011;2990;48.746;9.236;2023-07-24T12:10:59;1213.00;;;999.90;;
5929;SDS011;2990;48.746;9.236;2023-07-24T12:13:25;1235.03;;;999.90;;
5929;SDS011;2990;48.746;9.236;2023-07-24T12:15:52;1234.55;;;999.90;;
5929;SDS011;2990;48.746;9.236;2023-07-24T12:18:17;1235.82;;;999.90;;
5929;SDS011;2990;48.746;9.236;2023-07-24T12:20:43;1225.72;;;999.90;;
5929;SDS011;2990;48.746;9.236;2023-07-24T12:23:09;1215.80;;;999.90;;
5929;SDS011;2990;48.746;9.236;2023-07-24T12:25:34;1222.75;;;999.90;;
5929;SDS011;2990;48.746;9.236;2023-07-24T12:28:00;1217.13;;;999.90;;
5929;SDS011;2990;48.746;9.236;2023-07-24T12:30:26;1235.43;;;999.90;;
5929;SDS011;2990;48.746;9.236;2023-07-24T12:32:51;1222.00;;;999.90;;
5929;SDS011;2990;48.746;9.236;2023-07-24T12:35:17;1266.68;;;999.90;;
5929;SDS011;2990;48.746;9.236;2023-07-24T12:37:43;1289.00;;;999.90;;
5929;SDS011;2990;48.746;9.236;2023-07-24T12:40:10;1276.60;;;999.90;;
5929;SDS011;2990;48.746;9.236;2023-07-24T12:42:36;1255.50;;;999.90;;
5929;SDS011;2990;48.746;9.236;2023-07-24T12:45:02;1244.88;;;999.90;;
5929;SDS011;2990;48.746;9.236;2023-07-24T12:47:28;1267.85;;;999.90;;
5929;SDS011;2990;48.746;9.236;2023-07-24T12:49:54;1273.85;;;999.90;;
5929;SDS011;2990;48.746;9.236;2023-07-24T12:52:21;1235.05;;;999.90;;
5929;SDS011;2990;48.746;9.236;2023-07-24T12:54:46;1274.00;;;999.90;;
5929;SDS011;2990;48.746;9.236;2023-07-24T12:57:12;1256.32;;;999.90;;
5929;SDS011;2990;48.746;9.236;2023-07-24T12:59:38;1288.85;;;999.90;;
5929;SDS011;2990;48.746;9.236;2023-07-24T13:02:03;1282.53;;;999.90;;
5929;SDS011;2990;48.746;9.236;2023-07-24T13:04:29;1283.03;;;999.90;;
5929;SDS011;2990;48.746;9.236;2023-07-24T13:06:54;1286.68;;;999.90;;
5929;SDS011;2990;48.746;9.236;2023-07-24T13:09:20;1295.82;;;999.90;;
5929;SDS011;2990;48.746;9.236;2023-07-24T13:11:46;1294.78;;;999.90;;
5929;SDS011;2990;48.746;9.236;2023-07-24T13:14:15;1277.15;;;999.90;;
5929;SDS011;2990;48.746;9.236;2023-07-24T13:16:41;1284.20;;;999.90;;
5929;SDS011;2990;48.746;9.236;2023-07-24T13:19:08;1240.90;;;999.90;;
5929;SDS011;2990;48.746;9.236;2023-07-24T13:21:39;1234.93;;;999.90;;
5929;SDS011;2990;48.746;9.236;2023-07-24T13:24:05;1290.65;;;999.90;;
5929;SDS011;2990;48.746;9.236;2023-07-24T13:26:31;1260.72;;;999.90;;
5929;SDS011;2990;48.746;9.236;2023-07-24T13:28:57;1244.90;;;999.90;;
5929;SDS011;2990;48.746;9.236;2023-07-24T13:31:24;1214.80;;;999.90;;
5929;SDS011;2990;48.746;9.236;2023-07-24T13:33:50;1248.78;;;999.90;;
5929;SDS011;2990;48.746;9.236;2023-07-24T13:36:15;1238.00;;;999.90;;
5929;SDS011;2990;48.746;9.236;2023-07-24T13:38:41;1174.88;;;999.90;;
5929;SDS011;2990;48.746;9.236;2023-07-24T13:41:07;1052.93;;;968.85;;
5929;SDS011;2990;48.746;9.236;2023-07-24T13:43:33;1042.45;;;960.45;;
5929;SDS011;2990;48.746;9.236;2023-07-24T13:46:00;1046.70;;;962.53;;
5929;SDS011;2990;48.746;9.236;2023-07-24T13:48:29;1037.28;;;953.78;;
5929;SDS011;2990;48.746;9.236;2023-07-24T13:50:55;1048.68;;;964.42;;
5929;SDS011;2990;48.746;9.236;2023-07-24T13:53:20;1059.90;;;973.78;;
5929;SDS011;2990;48.746;9.236;2023-07-24T13:55:47;1043.45;;;960.03;;
5929;SDS011;2990;48.746;9.236;2023-07-24T13:58:12;1064.65;;;978.10;;
5929;SDS011;2990;48.746;9.236;2023-07-24T14:00:38;1058.43;;;973.33;;
5929;SDS011;2990;48.746;9.236;2023-07-24T14:03:05;1059.80;;;972.95;;
5929;SDS011;2990;48.746;9.236;2023-07-24T14:05:31;1057.72;;;973.03;;
5929;SDS011;2990;48.746;9.236;2023-07-24T14:07:58;1065.30;;;976.90;;
5929;SDS011;2990;48.746;9.236;2023-07-24T14:10:23;1076.82;;;987.30;;
5929;SDS011;2990;48.746;9.236;2023-07-24T14:12:49;1074.75;;;986.55;;
5929;SDS011;2990;48.746;9.236;2023-07-24T14:15:14;1030.65;;;946.42;;
5929;SDS011;2990;48.746;9.236;2023-07-24T14:17:40;1064.47;;;978.00;;
5929;SDS011;2990;48.746;9.236;2023-07-24T14:20:05;1085.38;;;993.67;;
5929;SDS011;2990;48.746;9.236;2023-07-24T14:22:32;1092.43;;;996.70;;
5929;SDS011;2990;48.746;9.236;2023-07-24T14:24:57;1100.68;;;999.38;;